createdAt,value
2023-04-04T00:00:53.315Z,3.33
2023-04-04T00:05:54.839Z,3.26
2023-04-04T00:11:03.036Z,3.16
2023-04-04T00:16:05.079Z,3.13
2023-04-04T00:21:06.799Z,3.06
2023-04-04T00:26:08.576Z,2.85
2023-04-04T00:31:11.845Z,2.90
2023-04-04T00:36:13.865Z,2.90
2023-04-04T00:41:16.737Z,2.80
2023-04-04T00:46:19.361Z,2.66
2023-04-04T00:57:53.348Z,2.64
2023-04-04T01:02:55.414Z,2.60
2023-04-04T01:07:57.403Z,2.65
2023-04-04T01:12:59.662Z,2.67
2023-04-04T01:18:03.992Z,2.54
2023-04-04T01:23:08.230Z,2.40
2023-04-04T01:28:10.488Z,2.37
2023-04-04T01:33:20.852Z,2.32
2023-04-04T01:38:44.241Z,2.10
2023-04-04T01:43:46.396Z,1.99
2023-04-04T01:48:48.449Z,1.87
2023-04-04T01:53:54.364Z,1.68
2023-04-04T01:58:56.785Z,1.52
2023-04-04T02:04:01.686Z,1.71
2023-04-04T02:09:25.205Z,1.71
2023-04-04T02:14:27.780Z,1.71
2023-04-04T02:19:30.243Z,1.73
2023-04-04T02:24:32.052Z,1.73
2023-04-04T02:29:33.857Z,1.72
2023-04-04T02:34:35.551Z,1.70
2023-04-04T02:39:37.816Z,1.63
2023-04-04T02:44:39.602Z,1.66
2023-04-04T02:49:43.213Z,1.57
2023-04-04T02:54:46.939Z,1.38
2023-04-04T03:00:00.083Z,0.80
2023-04-04T03:05:03.101Z,-0.01
2023-04-04T03:10:05.725Z,-0.13
2023-04-04T03:15:08.244Z,0.02
2023-04-04T03:20:15.678Z,0.05
2023-04-04T03:25:17.127Z,-0.05
2023-04-04T03:30:19.123Z,0.14
2023-04-04T03:35:20.768Z,-0.03
2023-04-04T03:40:23.982Z,-0.10
2023-04-04T03:45:25.683Z,-0.35
2023-04-04T03:50:27.377Z,-0.43
2023-04-04T03:55:29.375Z,-0.31
2023-04-04T04:00:34.280Z,-0.14
2023-04-04T04:05:37.974Z,-0.07
2023-04-04T04:10:39.885Z,-0.09
2023-04-04T04:15:41.889Z,0.01
2023-04-04T04:20:50.920Z,-0.12
2023-04-04T04:25:53.390Z,-0.20
2023-04-04T04:31:03.835Z,-0.19
2023-04-04T04:36:06.365Z,-0.08
2023-04-04T04:41:19.902Z,-0.10
2023-04-04T04:46:24.929Z,-0.07
2023-04-04T04:51:27.865Z,-0.07
2023-04-04T04:56:31.726Z,-0.15
2023-04-04T05:01:41.067Z,-0.46
2023-04-04T05:06:42.736Z,-0.81
2023-04-04T05:11:46.738Z,-0.78
2023-04-04T05:16:49.597Z,-0.59
2023-04-04T05:21:52.845Z,-0.57
2023-04-04T05:27:05.108Z,-0.77
2023-04-04T05:32:13.864Z,-0.77
2023-04-04T05:37:19.187Z,-0.67
2023-04-04T05:42:23.857Z,-0.19
2023-04-04T05:47:29.295Z,0.78
2023-04-04T05:52:31.492Z,1.60
2023-04-04T05:57:34.958Z,2.24
2023-04-04T06:02:36.913Z,3.47
2023-04-04T06:07:39.578Z,4.42
2023-04-04T06:12:43.564Z,4.81
2023-04-04T06:17:47.477Z,5.83
2023-04-04T06:22:49.924Z,5.79
2023-04-04T06:27:52.561Z,5.18
2023-04-04T06:32:54.217Z,5.70
2023-04-04T06:38:00.277Z,6.12
2023-04-04T06:43:03.750Z,5.52
2023-04-04T06:48:09.924Z,6.17
2023-04-04T06:53:13.054Z,6.49
2023-04-04T06:58:15.003Z,6.94
2023-04-04T07:03:16.858Z,5.36
2023-04-04T07:08:18.668Z,4.89
2023-04-04T07:13:20.375Z,5.43
2023-04-04T07:18:22.428Z,5.22
2023-04-04T07:23:24.232Z,5.73
2023-04-04T07:28:26.079Z,5.59
2023-04-04T07:33:28.064Z,6.25
2023-04-04T07:38:29.822Z,7.21
2023-04-04T07:43:31.569Z,6.79
2023-04-04T07:48:33.222Z,7.01
2023-04-04T07:53:35.012Z,6.96
2023-04-04T07:58:36.844Z,7.79
2023-04-04T08:03:38.583Z,9.00
2023-04-04T08:08:40.241Z,8.33
2023-04-04T08:13:41.795Z,8.40
2023-04-04T08:18:43.526Z,8.89
2023-04-04T08:23:45.656Z,8.09
2023-04-04T08:28:48.133Z,8.52
2023-04-04T08:33:50.135Z,8.92
2023-04-04T08:38:52.236Z,9.12
2023-04-04T08:43:54.165Z,8.97
2023-04-04T08:48:58.735Z,9.02
2023-04-04T08:54:03.891Z,9.32
2023-04-04T08:59:05.866Z,8.79
2023-04-04T09:04:09.636Z,8.90
2023-04-04T09:09:12.212Z,8.99
2023-04-04T09:14:15.075Z,9.01
2023-04-04T09:19:16.666Z,11.33
2023-04-04T09:24:18.512Z,10.80
2023-04-04T09:29:23.274Z,10.85
2023-04-04T09:34:25.285Z,11.18
2023-04-04T09:39:27.139Z,11.15
2023-04-04T09:44:30.032Z,11.02
2023-04-04T09:49:32.403Z,10.44
2023-04-04T09:54:38.191Z,10.73
2023-04-04T09:59:47.462Z,12.87
2023-04-04T10:04:53.684Z,11.89
2023-04-04T10:10:05.268Z,12.08
2023-04-04T10:15:07.718Z,11.77
2023-04-04T10:20:10.369Z,12.83
2023-04-04T10:25:12.166Z,13.48
2023-04-04T10:30:14.428Z,12.09
2023-04-04T10:35:17.692Z,12.55
2023-04-04T10:40:24.241Z,11.39
2023-04-04T10:45:26.683Z,11.93
2023-04-04T10:50:28.907Z,11.68
2023-04-04T10:55:32.283Z,12.08
2023-04-04T11:00:49.968Z,11.73
2023-04-04T11:05:51.962Z,13.71
2023-04-04T11:10:55.589Z,13.91
2023-04-04T11:16:07.202Z,14.14
2023-04-04T11:21:19.962Z,14.34
2023-04-04T11:26:28.316Z,13.45
2023-04-04T11:31:34.012Z,12.20
2023-04-04T11:36:35.465Z,12.90
2023-04-04T11:41:55.761Z,15.67
2023-04-04T11:47:07.185Z,13.05
2023-04-04T11:52:11.007Z,12.65
2023-04-04T11:57:14.866Z,13.60
2023-04-04T12:02:20.709Z,13.07
2023-04-04T12:07:24.236Z,13.37
2023-04-04T12:12:26.242Z,13.21
2023-04-04T12:17:32.463Z,13.04
2023-04-04T12:22:37.945Z,14.46
2023-04-04T12:27:40.064Z,13.86
2023-04-04T12:32:46.309Z,13.58
2023-04-04T12:38:00.128Z,13.44
2023-04-04T12:43:05.570Z,15.48
2023-04-04T12:48:12.720Z,15.91
2023-04-04T12:53:27.837Z,13.79
2023-04-04T12:58:32.049Z,13.68
2023-04-04T13:03:34.877Z,13.66
2023-04-04T13:08:36.830Z,16.07
2023-04-04T13:13:41.003Z,17.09
2023-04-04T13:18:44.242Z,13.97
2023-04-04T13:23:46.280Z,13.93
2023-04-04T13:28:48.588Z,15.43
2023-04-04T13:33:50.407Z,16.52
2023-04-04T13:38:52.137Z,16.33
2023-04-04T13:43:53.891Z,16.60
2023-04-04T13:48:55.546Z,14.80
2023-04-04T13:53:57.373Z,15.44
2023-04-04T13:58:59.821Z,15.63
2023-04-04T14:04:07.405Z,16.73
2023-04-04T14:09:14.921Z,17.31
2023-04-04T14:14:16.811Z,15.96
2023-04-04T14:19:19.244Z,15.75
2023-04-04T14:24:21.255Z,16.24
2023-04-04T14:29:23.295Z,16.74
2023-04-04T14:34:25.651Z,16.64
2023-04-04T14:39:27.635Z,16.55
2023-04-04T14:44:30.542Z,15.76
2023-04-04T14:49:33.192Z,16.49
2023-04-04T14:54:34.873Z,15.52
2023-04-04T14:59:36.799Z,16.59
2023-04-04T15:04:38.767Z,16.10
2023-04-04T15:09:42.165Z,16.84
2023-04-04T15:14:44.043Z,15.31
2023-04-04T15:19:45.598Z,15.34
2023-04-04T15:24:47.495Z,15.86
2023-04-04T15:29:49.193Z,15.71
2023-04-04T15:34:51.179Z,14.17
2023-04-04T15:39:54.267Z,14.17
2023-04-04T15:44:56.453Z,14.86
2023-04-04T15:49:58.122Z,14.87
2023-04-04T15:55:00.126Z,14.09
2023-04-04T16:00:02.092Z,12.93
2023-04-04T16:05:09.463Z,13.29
2023-04-04T18:12:56.256Z,8.83
2023-04-04T18:17:57.968Z,8.51
2023-04-04T18:23:00.172Z,8.43
2023-04-04T18:28:02.327Z,8.49
2023-04-04T18:33:04.321Z,8.57
2023-04-04T18:38:05.919Z,8.41
2023-04-04T18:43:07.521Z,8.39
2023-04-04T18:48:09.373Z,8.36
2023-04-04T18:53:11.417Z,8.25
2023-04-04T18:58:12.955Z,8.50
2023-04-04T19:03:14.570Z,8.49
2023-04-04T19:08:17.471Z,8.36
2023-04-04T19:13:22.132Z,8.53
2023-04-04T19:18:23.678Z,8.63
2023-04-04T19:23:25.332Z,8.42
2023-04-04T19:28:27.014Z,8.48
2023-04-04T19:33:29.046Z,8.32
2023-04-04T19:38:41.084Z,8.32
2023-04-04T19:43:45.615Z,8.25
2023-04-04T19:48:52.977Z,8.14
2023-04-04T19:53:59.322Z,8.17
2023-04-04T19:59:02.837Z,8.07
2023-04-04T20:04:04.443Z,8.07
2023-04-04T20:09:23.485Z,7.97
2023-04-04T20:14:25.137Z,7.92
2023-04-04T20:19:28.347Z,7.81
2023-04-04T20:24:30.156Z,7.76
2023-04-04T20:29:34.023Z,7.75
2023-04-04T20:34:49.102Z,7.77
2023-04-04T20:39:57.234Z,7.46
2023-04-04T20:45:10.782Z,7.23
2023-04-04T20:50:18.971Z,6.94
2023-04-04T20:55:22.098Z,6.66
2023-04-04T21:00:29.784Z,6.63
2023-04-04T21:05:38.400Z,6.63
2023-04-04T21:10:50.887Z,6.44
2023-04-04T21:15:59.017Z,6.35
2023-04-04T21:21:29.990Z,6.18
2023-04-04T21:26:36.893Z,6.08
2023-04-04T21:31:40.449Z,6.22
2023-04-04T21:36:43.397Z,6.14
2023-04-04T21:41:45.448Z,6.03
2023-04-04T21:46:47.308Z,6.19
2023-04-04T21:51:49.524Z,6.42
2023-04-04T21:56:51.192Z,6.32
2023-04-04T22:01:52.911Z,6.20
2023-04-04T22:06:54.662Z,6.01
2023-04-04T22:11:56.332Z,5.52
2023-04-04T22:16:58.048Z,5.53
2023-04-04T22:21:59.834Z,5.32
2023-04-04T22:27:01.549Z,5.31
2023-04-04T22:32:03.443Z,5.16
2023-04-04T22:37:05.145Z,5.07
2023-04-04T22:42:06.862Z,5.14
2023-04-04T22:47:08.713Z,4.96
2023-04-04T22:52:10.379Z,4.92
2023-04-04T22:57:12.326Z,4.33
2023-04-04T23:02:13.887Z,3.85
2023-04-04T23:07:15.443Z,3.52
2023-04-04T23:12:17.219Z,3.37
2023-04-04T23:17:18.863Z,3.25
2023-04-04T23:22:20.750Z,3.13
2023-04-04T23:27:22.440Z,3.20
2023-04-04T23:32:24.232Z,3.22
2023-04-04T23:37:25.994Z,3.18
2023-04-04T23:42:27.615Z,3.05
2023-04-04T23:47:29.420Z,2.94
2023-04-04T23:52:31.228Z,3.02
2023-04-04T23:57:33.133Z,2.92
